Time;durP1;ratioP1;P1;durP2;ratioP2;P2;SDS_P1;SDS_P2;PMS_P1;PMS_P2;Temp;Humidity;BMP_temperature;BMP_pressure;BME280_temperature;BME280_humidity;BME280_pressure;Samples;Min_cycle;Max_cycle;Signal;HPM_P1;HPM_P2
2022/08/14 00:01:48;;;;;;;4.20;0.85;;;;;;;18.07;72.02;100408.69;5026629;28;20075;-63
2022/08/14 00:04:14;;;;;;;4.22;0.70;;;;;;;18.08;71.62;100407.69;5028666;28;20045;-65
2022/08/14 00:06:39;;;;;;;0.70;0.60;;;;;;;18.09;72.10;100401.41;5036486;28;20041;-63
2022/08/14 00:09:05;;;;;;;0.80;0.50;;;;;;;18.11;71.78;100396.75;5028672;28;20110;-63
2022/08/14 00:11:31;;;;;;;3.13;0.50;;;;;;;18.16;71.18;100394.34;5045420;28;20211;-62
2022/08/14 00:13:56;;;;;;;0.60;0.45;;;;;;;18.28;70.34;100393.78;5027793;28;20026;-66
2022/08/14 00:16:22;;;;;;;0.90;0.60;;;;;;;18.30;69.92;100397.84;5008906;28;20103;-64
2022/08/14 00:18:47;;;;;;;2.35;0.40;;;;;;;18.31;70.11;100393.41;5028090;28;20037;-68
2022/08/14 00:21:13;;;;;;;1.98;0.75;;;;;;;18.29;69.92;100392.78;5028698;28;20033;-63
2022/08/14 00:23:39;;;;;;;1.08;0.50;;;;;;;18.31;70.90;100393.41;5027113;28;20090;-66
2022/08/14 00:26:05;;;;;;;0.70;0.50;;;;;;;18.24;72.40;100393.38;5027524;28;20037;-62
2022/08/14 00:28:30;;;;;;;0.80;0.50;;;;;;;18.12;73.15;100379.91;5029501;28;20532;-66
2022/08/14 00:30:58;;;;;;;1.98;0.55;;;;;;;17.94;74.05;100386.72;5045636;28;20105;-66
2022/08/14 00:33:25;;;;;;;1.20;0.52;;;;;;;17.73;74.98;100392.88;5026307;28;20024;-65
2022/08/14 00:35:52;;;;;;;2.38;0.70;;;;;;;17.53;75.36;100387.44;5031605;28;20559;-62
2022/08/14 00:38:19;;;;;;;2.35;0.70;;;;;;;17.42;75.76;100377.44;5029538;28;20034;-63
2022/08/14 00:40:44;;;;;;;2.45;0.50;;;;;;;17.40;75.70;100376.81;5033726;28;20056;-66
2022/08/14 00:43:10;;;;;;;1.85;0.70;;;;;;;17.48;74.84;100379.31;5050406;28;20463;-64
2022/08/14 00:45:37;;;;;;;0.60;0.40;;;;;;;17.62;73.92;100377.56;5048383;28;20074;-60
2022/08/14 00:48:03;;;;;;;1.00;0.52;;;;;;;17.67;73.39;100362.84;5051019;28;20044;-65
2022/08/14 00:50:30;;;;;;;0.70;0.50;;;;;;;17.68;73.23;100355.75;5048752;28;20033;-65
2022/08/14 00:52:58;;;;;;;2.28;0.80;;;;;;;17.70;72.21;100348.47;5030044;28;20029;-63
2022/08/14 00:55:26;;;;;;;2.90;0.50;;;;;;;17.80;72.05;100349.75;5049390;28;20098;-62
2022/08/14 01:00:39;;;;;;;2.65;0.60;;;;;;;17.90;71.08;100347.59;5031756;28;20198;-63
2022/08/14 01:03:06;;;;;;;0.93;0.75;;;;;;;17.88;70.94;100346.16;5029350;28;20045;-66
2022/08/14 01:05:33;;;;;;;0.95;0.50;;;;;;;17.89;70.92;100348.59;5026009;28;20029;-62
2022/08/14 01:08:00;;;;;;;0.73;0.40;;;;;;;17.86;70.97;100333.16;5011823;28;20084;-63
2022/08/14 01:10:49;;;;;;;1.05;0.45;;;;;;;17.83;71.30;100327.47;5029679;28;20029;-64
2022/08/14 01:13:15;;;;;;;1.88;0.50;;;;;;;17.80;71.73;100331.31;5030644;28;20050;-67
2022/08/14 01:15:52;;;;;;;1.13;0.32;;;;;;;17.87;70.98;100328.72;5029780;28;20651;-63
2022/08/14 01:21:13;;;;;;;1.52;0.70;;;;;;;17.85;72.08;100334.19;5033252;28;20390;-66
2022/08/14 01:23:42;;;;;;;1.13;0.52;;;;;;;17.74;72.56;100328.63;5034189;28;20040;-67
2022/08/14 01:26:08;;;;;;;0.70;0.50;;;;;;;17.67;73.21;100328.59;5029514;28;20025;-68
2022/08/14 01:28:36;;;;;;;4.32;0.80;;;;;;;17.64;73.55;100323.69;5029767;28;20499;-66
2022/08/14 01:31:11;;;;;;;1.20;0.43;;;;;;;17.55;74.14;100325.66;5023102;28;20073;-66
2022/08/14 01:33:43;;;;;;;1.23;0.75;;;;;;;17.46;74.78;100326.81;5030526;28;20400;-59
2022/08/14 01:36:09;;;;;;;1.95;0.60;;;;;;;17.45;74.28;100321.75;5026349;28;20039;-67
2022/08/14 01:38:36;;;;;;;1.30;0.63;;;;;;;17.48;74.08;100319.53;5042246;28;20036;-64
2022/08/14 01:41:06;;;;;;;1.58;0.60;;;;;;;17.49;74.26;100315.88;5047470;28;20079;-66
2022/08/14 01:43:37;;;;;;;1.65;0.50;;;;;;;17.33;74.90;100323.28;5031778;28;20040;-65
2022/08/14 01:46:05;;;;;;;1.40;0.50;;;;;;;17.33;74.59;100321.47;5047156;28;20068;-62
2022/08/14 01:48:31;;;;;;;2.60;0.65;;;;;;;17.38;73.97;100315.63;5039531;28;20496;-65
2022/08/14 01:51:00;;;;;;;0.70;0.45;;;;;;;17.46;73.82;100305.75;5030347;28;20056;-62
2022/08/14 01:53:27;;;;;;;0.63;0.40;;;;;;;17.47;73.30;100310.00;5044045;28;20033;-62
2022/08/14 01:55:57;;;;;;;2.35;0.50;;;;;;;17.47;73.30;100310.00;5032184;28;20036;-57
2022/08/14 01:58:26;;;;;;;0.70;0.50;;;;;;;17.48;73.33;100302.94;5024637;28;20030;-62
2022/08/14 02:00:53;;;;;;;1.45;0.50;;;;;;;17.53;74.19;100305.78;5030119;28;20037;-67
2022/08/14 02:03:19;;;;;;;2.72;2.10;;;;;;;17.38;75.38;100302.44;5032107;28;20500;-63
2022/08/14 02:05:44;;;;;;;3.65;1.95;;;;;;;17.19;76.23;100303.94;5038769;28;20076;-66
2022/08/14 02:08:10;;;;;;;2.00;1.80;;;;;;;17.08;76.76;100301.81;5035718;28;20038;-64
2022/08/14 02:10:40;;;;;;;1.90;1.60;;;;;;;17.04;77.17;100308.47;5033879;28;20033;-63
2022/08/14 02:13:07;;;;;;;2.53;1.70;;;;;;;17.01;77.99;100307.06;5028689;28;20485;-62
2022/08/14 02:15:33;;;;;;;1.83;1.55;;;;;;;16.90;79.37;100295.22;5029354;28;20065;-65
2022/08/14 02:18:00;;;;;;;1.70;1.10;;;;;;;16.70;79.00;100293.41;5029221;28;20056;-64
2022/08/14 02:20:32;;;;;;;1.70;0.95;;;;;;;16.77;76.80;100297.72;5013201;28;20492;-64
2022/08/14 02:22:59;;;;;;;1.00;0.68;;;;;;;16.89;77.36;100282.25;5023710;28;20042;-68
2022/08/14 02:25:25;;;;;;;1.38;0.68;;;;;;;16.94;77.29;100289.56;5028507;28;20079;-63
2022/08/14 02:27:54;;;;;;;2.05;0.50;;;;;;;16.99;76.79;100288.00;5039997;28;20025;-62
2022/08/14 02:30:23;;;;;;;1.40;0.75;;;;;;;17.04;76.57;100282.13;5026996;28;20404;-63
2022/08/14 02:32:50;;;;;;;0.70;0.50;;;;;;;17.05;76.39;100291.66;5011324;28;20435;-64
2022/08/14 02:35:17;;;;;;;1.45;0.57;;;;;;;17.06;76.93;100277.50;5028134;28;20511;-64
2022/08/14 02:37:44;;;;;;;1.60;0.60;;;;;;;17.06;76.79;100280.13;5035178;28;20079;-64
2022/08/14 02:40:11;;;;;;;2.25;0.50;;;;;;;17.02;76.96;100276.25;5033247;28;20025;-61
2022/08/14 02:42:38;;;;;;;2.47;0.43;;;;;;;17.03;76.63;100273.44;5030970;28;20095;-67
2022/08/14 02:45:05;;;;;;;1.30;0.60;;;;;;;17.07;76.53;100268.59;5026239;28;20523;-63
2022/08/14 02:47:31;;;;;;;3.25;0.50;;;;;;;17.09;76.19;100266.59;5027900;28;20451;-59
2022/08/14 02:49:56;;;;;;;2.63;0.63;;;;;;;17.08;76.59;100275.50;5048598;28;20029;-66
2022/08/14 02:52:23;;;;;;;0.77;0.50;;;;;;;17.02;77.01;100277.06;5028778;28;20481;-65
2022/08/14 02:54:49;;;;;;;1.48;0.60;;;;;;;16.96;77.45;100269.97;5047018;28;20102;-64
2022/08/14 02:57:15;;;;;;;1.25;0.68;;;;;;;16.89;77.81;100271.72;5010783;28;20025;-62
2022/08/14 02:59:41;;;;;;;1.60;0.47;;;;;;;16.89;78.05;100267.28;5007462;28;20037;-63
2022/08/14 03:02:07;;;;;;;0.90;0.47;;;;;;;16.83;78.31;100269.84;5028783;28;20021;-68
2022/08/14 03:04:33;;;;;;;2.80;0.70;;;;;;;16.78;78.65;100262.53;5026583;28;20104;-60
2022/08/14 03:06:58;;;;;;;2.17;0.70;;;;;;;16.74;78.62;100268.34;5028797;28;20033;-63
2022/08/14 03:09:25;;;;;;;1.30;0.50;;;;;;;16.72;79.05;100259.81;5033390;28;20030;-62
2022/08/14 03:11:51;;;;;;;2.25;0.70;;;;;;;16.72;78.70;100260.66;5025553;28;20033;-63
2022/08/14 03:14:19;;;;;;;1.95;0.70;;;;;;;16.72;78.72;100265.09;5030291;28;20025;-66
2022/08/14 03:16:46;;;;;;;1.85;0.70;;;;;;;16.71;78.91;100264.28;5030227;28;20029;-64
2022/08/14 03:19:12;;;;;;;3.05;0.70;;;;;;;16.64;79.38;100260.78;5025845;28;20052;-62
2022/08/14 03:21:38;;;;;;;1.80;0.70;;;;;;;16.61;79.58;100261.09;5021444;28;20061;-63
2022/08/14 03:24:11;;;;;;;2.60;0.90;;;;;;;16.57;79.63;100259.84;5020529;28;20064;-67
2022/08/14 03:26:43;;;;;;;1.60;0.80;;;;;;;16.53;79.25;100258.63;5035451;28;20033;-63
2022/08/14 03:29:11;;;;;;;1.67;0.65;;;;;;;16.56;79.50;100266.13;5028538;28;20041;-64
2022/08/14 03:31:39;;;;;;;1.05;0.63;;;;;;;16.63;79.26;100256.47;5027435;28;20095;-62
2022/08/14 03:34:08;;;;;;;1.25;0.60;;;;;;;16.65;79.06;100258.94;5047421;28;20107;-60
2022/08/14 03:36:35;;;;;;;0.98;0.50;;;;;;;16.66;79.29;100256.13;5033694;28;20037;-60
2022/08/14 03:39:03;;;;;;;1.63;0.82;;;;;;;16.65;79.35;100249.25;5059255;23;20052;-83
2022/08/14 03:41:28;;;;;;;1.00;0.70;;;;;;;16.66;78.77;100240.34;5004415;28;20041;-87
2022/08/14 03:43:57;;;;;;;2.30;0.50;;;;;;;16.69;77.94;100234.72;5007483;28;20045;-86
2022/08/14 03:46:25;;;;;;;3.83;0.98;;;;;;;16.79;77.77;100239.66;4996030;28;20117;-87
2022/08/14 03:48:54;;;;;;;2.70;0.50;;;;;;;16.83;77.61;100236.44;4987384;28;20038;-90
2022/08/14 03:51:21;;;;;;;2.22;0.50;;;;;;;16.81;77.77;100241.09;4997223;28;20030;-86
2022/08/14 03:53:47;;;;;;;1.13;0.60;;;;;;;16.72;78.54;100228.25;5004530;28;20044;-86
2022/08/14 03:56:17;;;;;;;1.15;0.60;;;;;;;16.66;78.59;100231.66;4993971;28;20025;-89
2022/08/14 03:58:48;;;;;;;3.67;0.82;;;;;;;16.63;78.58;100224.09;5010495;28;20034;-86
2022/08/14 04:01:16;;;;;;;2.45;0.75;;;;;;;16.60;79.05;100225.28;5012753;28;20038;-88
2022/08/14 04:03:42;;;;;;;1.00;0.60;;;;;;;16.61;78.93;100226.91;5003460;28;20054;-90
2022/08/14 04:06:07;;;;;;;2.65;0.70;;;;;;;16.56;79.36;100219.59;4979089;28;20229;-90
2022/08/14 04:08:38;;;;;;;4.57;0.70;;;;;;;16.53;79.07;100225.25;4980806;28;20037;-84
2022/08/14 04:11:05;;;;;;;2.50;0.60;;;;;;;16.47;79.26;100217.31;5013709;28;20061;-88
2022/08/14 04:13:33;;;;;;;1.10;0.50;;;;;;;16.47;79.80;100223.38;4996618;28;20065;-87
2022/08/14 04:15:59;;;;;;;1.67;0.60;;;;;;;16.42;79.80;100217.88;4995086;28;20026;-85
2022/08/14 04:18:25;;;;;;;1.58;0.50;;;;;;;16.44;80.07;100213.25;4995759;28;20041;-85
2022/08/14 04:20:50;;;;;;;2.40;0.90;;;;;;;16.45;79.88;100206.97;4994430;28;20045;-88
2022/08/14 04:23:16;;;;;;;3.97;0.50;;;;;;;16.42;79.69;100207.34;5009411;28;20038;-90
2022/08/14 04:25:41;;;;;;;2.08;0.70;;;;;;;16.42;79.39;100203.91;5006130;28;20030;-87
2022/08/14 04:28:10;;;;;;;1.10;0.52;;;;;;;16.48;79.86;100216.31;5012993;28;20037;-85
2022/08/14 04:30:39;;;;;;;1.17;0.50;;;;;;;16.47;79.51;100202.34;5009373;28;20037;-84
2022/08/14 04:33:10;;;;;;;3.20;0.90;;;;;;;16.49;79.65;100197.72;5012364;28;20056;-88
2022/08/14 04:35:36;;;;;;;2.80;0.52;;;;;;;16.52;79.03;100199.16;4997132;28;20464;-84
2022/08/14 04:43:38;;;;;;;2.15;0.55;;;;;;;16.57;78.95;100191.47;5008278;28;20096;-84
2022/08/14 04:46:05;;;;;;;2.50;0.90;;;;;;;16.52;79.32;100181.56;4993175;28;20041;-90
2022/08/14 04:48:31;;;;;;;1.02;0.60;;;;;;;16.52;79.60;100184.19;4991801;28;20129;-86
2022/08/14 04:50:56;;;;;;;1.52;0.60;;;;;;;16.53;79.50;100174.47;5012346;28;20401;-89
2022/08/14 04:53:24;;;;;;;2.50;0.60;;;;;;;16.55;79.32;100178.50;5010845;28;20393;-84
2022/08/14 04:55:50;;;;;;;0.70;0.50;;;;;;;16.56;78.82;100167.00;4991564;28;20508;-88
2022/08/14 04:58:17;;;;;;;2.63;0.50;;;;;;;16.67;78.33;100168.31;4992883;28;20069;-88
2022/08/14 05:00:49;;;;;;;0.93;0.60;;;;;;;16.82;78.01;100176.13;5007654;28;20040;-85
2022/08/14 05:03:23;;;;;;;1.05;0.60;;;;;;;16.90;76.87;100166.28;5010215;28;20091;-87
2022/08/14 05:05:54;;;;;;;1.00;0.50;;;;;;;16.96;77.02;100163.88;4997226;28;20057;-88
2022/08/14 05:08:21;;;;;;;2.35;0.73;;;;;;;17.03;77.19;100176.06;5008937;28;20042;-88
2022/08/14 05:10:53;;;;;;;2.45;0.60;;;;;;;16.98;77.16;100175.84;4989728;28;20133;-88
2022/08/14 05:13:23;;;;;;;2.25;0.50;;;;;;;16.95;78.12;100172.78;5010954;28;20104;-86
2022/08/14 05:15:51;;;;;;;1.20;0.93;;;;;;;16.80;78.64;100167.63;4991000;28;20180;-89
2022/08/14 05:18:19;;;;;;;3.55;0.75;;;;;;;16.69;79.40;100157.63;5018800;28;20065;-86
2022/08/14 05:20:48;;;;;;;2.30;0.73;;;;;;;16.70;79.55;100160.06;5033385;28;20017;-88
2022/08/14 05:23:17;;;;;;;1.30;0.60;;;;;;;16.77;78.85;100158.28;5032822;28;20026;-85
2022/08/14 05:25:43;;;;;;;3.35;0.55;;;;;;;16.87;78.72;100163.22;5034362;28;20009;-87
2022/08/14 05:28:10;;;;;;;1.40;0.90;;;;;;;16.96;78.70;100171.78;5017834;28;20033;-81
2022/08/14 05:30:37;;;;;;;1.70;0.90;;;;;;;17.07;78.29;100173.84;4994701;28;20137;-84
2022/08/14 05:33:03;;;;;;;2.50;0.68;;;;;;;17.16;78.19;100173.50;4989173;28;20092;-84
2022/08/14 05:35:28;;;;;;;0.90;0.68;;;;;;;17.22;77.95;100178.00;4997355;28;20120;-84
2022/08/14 05:37:58;;;;;;;3.25;0.60;;;;;;;17.35;77.87;100182.53;5014587;28;20030;-83
2022/08/14 05:40:23;;;;;;;0.70;0.50;;;;;;;17.52;77.09;100173.25;5021690;28;20656;-86
2022/08/14 05:42:49;;;;;;;4.18;0.70;;;;;;;17.64;77.19;100177.97;5022855;28;20026;-81
2022/08/14 05:45:16;;;;;;;0.70;0.45;;;;;;;17.74;76.38;100183.72;5022177;28;20025;-83
2022/08/14 05:47:42;;;;;;;0.93;0.60;;;;;;;17.85;75.65;100180.50;5017000;28;20270;-85
2022/08/14 05:50:13;;;;;;;1.92;0.60;;;;;;;17.94;75.36;100187.22;5014156;28;20030;-85
2022/08/14 05:52:38;;;;;;;4.82;0.60;;;;;;;17.98;75.51;100180.53;5014972;28;20172;-84
2022/08/14 05:55:07;;;;;;;1.70;0.73;;;;;;;18.03;75.29;100180.75;5021149;28;20049;-86
2022/08/14 05:57:32;;;;;;;2.08;0.50;;;;;;;18.05;74.99;100175.25;5007660;28;20057;-84
2022/08/14 05:59:58;;;;;;;0.63;0.43;;;;;;;18.13;75.21;100180.34;5002422;28;20080;-84
2022/08/14 06:02:23;;;;;;;1.17;0.50;;;;;;;18.27;73.91;100183.84;4996142;28;20028;-85
2022/08/14 06:04:48;;;;;;;2.85;0.90;;;;;;;18.37;73.81;100184.25;4999487;28;20034;-84
2022/08/14 06:07:14;;;;;;;1.40;0.57;;;;;;;18.41;73.58;100186.28;4984974;28;20505;-85
2022/08/14 06:09:40;;;;;;;2.75;0.60;;;;;;;18.48;73.27;100179.16;5020374;28;20064;-83
2022/08/14 06:12:07;;;;;;;1.70;0.63;;;;;;;18.60;73.06;100183.84;5017172;28;20068;-85
2022/08/14 06:14:32;;;;;;;2.88;0.57;;;;;;;18.63;72.87;100192.19;5020757;28;20038;-85
2022/08/14 06:16:58;;;;;;;1.40;0.47;;;;;;;18.70;72.13;100187.72;5020111;28;20038;-84
2022/08/14 06:19:23;;;;;;;3.13;0.60;;;;;;;18.83;72.42;100190.34;4997911;28;20040;-86
2022/08/14 06:21:49;;;;;;;1.40;0.52;;;;;;;18.93;72.11;100200.47;5018463;28;20041;-83
2022/08/14 06:24:14;;;;;;;0.93;0.68;;;;;;;19.00;71.81;100196.00;5019449;28;20022;-84
2022/08/14 06:26:40;;;;;;;0.70;0.38;;;;;;;19.10;71.57;100196.41;4994586;28;20053;-85
2022/08/14 06:29:05;;;;;;;2.15;0.82;;;;;;;19.21;70.97;100192.31;5003594;28;20536;-85
2022/08/14 06:31:30;;;;;;;1.58;0.60;;;;;;;19.31;70.59;100191.88;4988961;28;20100;-86
2022/08/14 06:33:56;;;;;;;2.40;0.50;;;;;;;19.39;69.86;100192.44;4995438;28;20034;-85
2022/08/14 06:36:21;;;;;;;0.85;0.63;;;;;;;19.50;70.45;100188.34;5000112;28;20057;-86
2022/08/14 06:38:47;;;;;;;1.88;0.43;;;;;;;19.61;68.91;100190.38;5004886;28;20088;-87
2022/08/14 06:41:12;;;;;;;0.80;0.45;;;;;;;19.71;69.72;100190.72;4994595;28;20491;-85
2022/08/14 06:43:37;;;;;;;2.35;0.50;;;;;;;19.78;68.76;100196.00;5007889;28;20101;-85
2022/08/14 06:46:03;;;;;;;3.17;0.50;;;;;;;19.91;68.95;100192.44;5007051;28;20037;-86
2022/08/14 06:48:29;;;;;;;0.68;0.40;;;;;;;20.00;68.91;100199.94;4997859;28;20045;-85
2022/08/14 06:50:55;;;;;;;1.17;0.50;;;;;;;20.06;67.92;100193.78;4993053;28;20038;-86
2022/08/14 06:53:21;;;;;;;0.77;0.55;;;;;;;20.06;68.13;100195.63;4998825;28;20432;-87
2022/08/14 06:55:47;;;;;;;1.30;0.40;;;;;;;20.09;67.17;100206.59;4991577;28;20493;-86
2022/08/14 06:58:20;;;;;;;1.17;0.47;;;;;;;20.19;67.50;100204.28;4983833;28;20367;-86
2022/08/14 07:06:20;;;;;;;3.22;0.50;;;;;;;20.53;65.86;100208.34;4969964;28;20105;-86
2022/08/14 07:08:46;;;;;;;2.28;0.73;;;;;;;20.63;65.97;100209.69;4966200;28;20618;-86
2022/08/14 07:11:12;;;;;;;3.60;0.50;;;;;;;20.80;64.98;100210.75;4961077;28;20043;-93
2022/08/14 07:13:37;;;;;;;1.02;0.57;;;;;;;20.96;64.50;100207.56;4958627;28;20031;-89
2022/08/14 07:16:04;;;;;;;1.98;0.43;;;;;;;21.05;64.03;100219.50;4956891;28;20047;-87
2022/08/14 07:18:31;;;;;;;2.47;0.40;;;;;;;21.17;64.36;100217.75;4969068;28;20153;-85
2022/08/14 07:21:00;;;;;;;2.45;0.47;;;;;;;21.26;63.82;100214.84;4960560;28;20037;-86
2022/08/14 07:23:26;;;;;;;0.80;0.32;;;;;;;21.36;63.63;100218.56;4945349;28;20260;-85
2022/08/14 07:25:55;;;;;;;0.90;0.30;;;;;;;21.53;61.87;100214.31;4963193;28;20053;-88
2022/08/14 07:28:27;;;;;;;2.13;0.40;;;;;;;21.71;62.72;100215.34;4969003;28;20395;-88
2022/08/14 07:30:56;;;;;;;3.22;0.45;;;;;;;21.90;62.62;100216.09;4943635;28;20198;-87
2022/08/14 07:33:24;;;;;;;1.52;0.35;;;;;;;22.06;62.35;100211.00;4959220;28;20150;-86
2022/08/14 07:35:50;;;;;;;0.90;0.30;;;;;;;22.22;61.58;100212.19;4963889;28;20038;-89
2022/08/14 07:38:19;;;;;;;4.03;0.50;;;;;;;22.28;60.97;100207.81;4963902;28;20039;-87
2022/08/14 07:40:45;;;;;;;1.38;0.40;;;;;;;22.43;61.13;100205.56;4948348;28;20051;-84
2022/08/14 07:43:12;;;;;;;2.30;0.50;;;;;;;22.51;61.15;100208.69;4985150;28;20122;-89
2022/08/14 07:45:38;;;;;;;1.85;0.45;;;;;;;22.70;61.66;100206.72;5008283;28;20058;-87
2022/08/14 07:48:04;;;;;;;1.25;0.30;;;;;;;22.90;61.83;100205.63;5010703;28;20072;-89
2022/08/14 07:50:30;;;;;;;0.50;0.30;;;;;;;23.11;61.22;100197.06;4985170;28;20134;-88
2022/08/14 07:52:55;;;;;;;0.60;0.30;;;;;;;23.26;60.30;100192.06;5004793;28;20388;-85
2022/08/14 07:55:21;;;;;;;0.75;0.45;;;;;;;23.24;60.12;100186.16;4988974;28;20432;-89
2022/08/14 07:57:47;;;;;;;2.10;0.40;;;;;;;23.45;59.76;100190.88;4998081;28;20050;-89
2022/08/14 08:00:21;;;;;;;2.22;0.50;;;;;;;23.57;58.86;100184.75;5005588;28;20030;-89
2022/08/14 08:02:50;;;;;;;3.70;0.47;;;;;;;23.59;59.62;100187.97;4999679;28;20037;-86
2022/08/14 08:05:17;;;;;;;1.08;0.50;;;;;;;23.71;59.13;100192.19;4987069;28;20030;-87
2022/08/14 08:07:47;;;;;;;0.60;0.40;;;;;;;23.86;59.40;100183.69;5005155;28;21577;-87
2022/08/14 08:10:30;;;;;;;0.82;0.43;;;;;;;24.03;59.14;100184.53;5002680;28;20026;-83
2022/08/14 08:12:59;;;;;;;1.88;0.65;;;;;;;24.08;57.65;100184.63;4998461;28;20045;-90
2022/08/14 08:15:27;;;;;;;1.77;0.50;;;;;;;24.12;58.28;100177.75;5005022;28;20022;-86
2022/08/14 08:17:54;;;;;;;2.35;0.50;;;;;;;24.30;57.85;100184.75;5005433;28;20144;-86
2022/08/14 08:20:25;;;;;;;2.30;2.10;;;;;;;24.30;57.83;100178.63;5006514;28;20034;-85
2022/08/14 08:22:52;;;;;;;0.73;0.40;;;;;;;24.43;58.12;100173.78;4990809;28;20172;-87
2022/08/14 08:25:18;;;;;;;2.40;0.43;;;;;;;24.66;57.98;100178.13;5008844;28;20034;-85
2022/08/14 08:28:14;;;;;;;1.20;0.60;;;;;;;24.75;57.63;100176.66;5011468;28;20033;-86
2022/08/14 08:30:42;;;;;;;1.90;0.88;;;;;;;24.91;57.88;100175.03;5009267;28;20042;-84
2022/08/14 08:33:09;;;;;;;2.97;0.30;;;;;;;25.10;57.49;100173.69;5011634;28;20099;-86
2022/08/14 08:35:37;;;;;;;5.97;0.50;;;;;;;25.04;56.45;100168.56;5011309;28;20036;-88
2022/08/14 08:38:12;;;;;;;0.80;0.40;;;;;;;25.09;56.67;100166.75;5011191;28;20489;-88
2022/08/14 08:40:42;;;;;;;2.00;0.40;;;;;;;25.27;57.04;100178.16;5008005;28;20499;-87
2022/08/14 08:43:15;;;;;;;0.80;0.40;;;;;;;25.36;55.68;100174.81;5010084;28;20210;-85
2022/08/14 08:45:40;;;;;;;1.38;0.57;;;;;;;25.48;57.13;100173.91;5009550;28;20048;-86
2022/08/14 08:48:06;;;;;;;1.10;0.32;;;;;;;25.64;56.19;100167.69;5011218;28;20022;-88
2022/08/14 08:50:38;;;;;;;2.72;0.40;;;;;;;25.65;55.45;100169.31;5010276;28;20038;-88
2022/08/14 08:53:08;;;;;;;0.68;0.30;;;;;;;25.67;55.82;100173.31;5021522;28;20078;-85
2022/08/14 08:55:44;;;;;;;0.95;0.40;;;;;;;25.51;55.64;100174.22;5028666;28;20549;-86
2022/08/14 08:58:18;;;;;;;1.30;0.50;;;;;;;25.50;56.42;100166.44;5026239;28;20022;-84
2022/08/14 09:00:48;;;;;;;2.53;0.40;;;;;;;25.58;55.73;100158.78;5028592;28;20033;-88
2022/08/14 09:03:19;;;;;;;2.38;0.30;;;;;;;25.62;55.26;100154.56;5021448;28;20494;-87
2022/08/14 09:05:56;;;;;;;1.15;0.30;;;;;;;25.54;53.83;100156.88;4993638;28;20026;-86
2022/08/14 09:08:25;;;;;;;1.25;0.45;;;;;;;25.64;54.39;100165.03;5010809;28;20069;-86
2022/08/14 09:10:54;;;;;;;0.55;0.32;;;;;;;25.72;54.43;100159.25;5008706;28;20129;-83
2022/08/14 09:13:21;;;;;;;0.70;0.40;;;;;;;25.66;54.37;100160.25;5009260;28;20359;-86
2022/08/14 09:15:48;;;;;;;1.85;0.38;;;;;;;25.71;54.84;100168.31;5008357;28;20034;-84
2022/08/14 09:18:16;;;;;;;1.55;0.60;;;;;;;25.71;55.10;100162.97;4991431;28;20125;-90
2022/08/14 09:20:44;;;;;;;2.60;0.30;;;;;;;25.74;54.46;100165.13;5010313;28;20030;-89
2022/08/14 09:23:12;;;;;;;1.25;0.30;;;;;;;25.71;54.68;100162.97;4992895;28;20069;-84
2022/08/14 09:25:40;;;;;;;4.05;0.40;;;;;;;25.63;53.47;100161.50;5008746;28;20034;-91
2022/08/14 09:28:07;;;;;;;1.45;0.30;;;;;;;25.60;52.59;100163.88;4992953;28;20033;-87
2022/08/14 09:30:34;;;;;;;3.13;0.30;;;;;;;25.54;53.03;100163.00;5008708;28;20046;-89
2022/08/14 09:33:25;;;;;;;0.95;0.45;;;;;;;25.73;53.30;100160.84;5008214;28;20026;-88
2022/08/14 09:36:12;;;;;;;0.73;0.40;;;;;;;25.92;51.75;100151.44;5010593;28;20045;-85
2022/08/14 09:38:46;;;;;;;3.90;0.50;;;;;;;25.82;50.87;100155.88;5010783;28;20103;-89
2022/08/14 09:41:39;;;;;;;0.63;0.30;;;;;;;25.63;50.13;100156.19;4990653;28;20056;-86
2022/08/14 09:44:14;;;;;;;1.25;0.43;;;;;;;25.59;50.72;100156.94;4998944;28;20800;-90
2022/08/14 09:46:39;;;;;;;1.92;0.50;;;;;;;25.67;51.51;100149.31;5010185;28;20040;-86
2022/08/14 09:49:07;;;;;;;0.52;0.30;;;;;;;25.70;52.06;100145.34;5010178;28;20026;-83
2022/08/14 09:51:38;;;;;;;1.00;0.30;;;;;;;25.67;51.29;100140.50;5010127;28;20132;-88
2022/08/14 09:54:11;;;;;;;1.70;0.40;;;;;;;25.74;51.33;100138.44;5009577;28;20038;-86
2022/08/14 09:56:45;;;;;;;0.60;0.30;;;;;;;25.71;51.72;100137.09;5010019;28;20635;-86
2022/08/14 09:59:13;;;;;;;1.27;0.40;;;;;;;25.82;52.93;100138.00;5008325;28;20014;-86
2022/08/14 10:01:39;;;;;;;1.80;0.40;;;;;;;25.94;54.47;100135.97;4991163;28;20045;-87
2022/08/14 10:04:24;;;;;;;1.17;0.30;;;;;;;26.04;54.18;100141.38;5009782;28;20022;-88
2022/08/14 10:06:50;;;;;;;3.65;0.40;;;;;;;26.14;54.15;100135.34;5009890;28;20030;-87
2022/08/14 10:09:17;;;;;;;0.50;0.30;;;;;;;26.02;53.88;100134.69;5006839;28;20100;-85
2022/08/14 10:11:54;;;;;;;0.63;0.30;;;;;;;25.99;53.74;100143.22;5008274;28;20040;-84
2022/08/14 10:14:25;;;;;;;1.52;0.40;;;;;;;26.10;54.45;100129.69;5008155;28;20129;-85
2022/08/14 10:16:54;;;;;;;1.63;0.40;;;;;;;26.06;54.56;100144.59;5010047;28;20034;-90
2022/08/14 10:19:26;;;;;;;1.88;0.30;;;;;;;26.09;55.06;100138.75;4987311;28;20560;-90
2022/08/14 10:21:59;;;;;;;1.70;0.47;;;;;;;25.99;55.62;100137.91;4985195;28;20124;-83
2022/08/14 10:24:28;;;;;;;1.65;0.50;;;;;;;26.06;56.07;100136.59;5006513;28;20018;-85
2022/08/14 10:26:58;;;;;;;1.15;0.30;;;;;;;26.10;56.16;100139.56;5005697;28;20022;-86
2022/08/14 10:29:39;;;;;;;1.27;0.38;;;;;;;26.14;56.80;100140.66;5000046;28;20072;-85
2022/08/14 10:32:12;;;;;;;2.10;0.63;;;;;;;26.24;56.13;100143.44;5004122;28;20053;-86
2022/08/14 10:34:38;;;;;;;3.45;0.35;;;;;;;26.17;56.28;100136.69;5005413;28;20363;-87
2022/08/14 10:37:09;;;;;;;3.38;0.50;;;;;;;26.20;55.97;100128.97;4992652;28;20029;-87
2022/08/14 10:39:37;;;;;;;1.33;0.40;;;;;;;26.27;56.35;100128.75;5006169;28;20108;-88
2022/08/14 10:42:11;;;;;;;2.05;0.50;;;;;;;26.30;56.44;100123.72;5010098;28;20026;-86
2022/08/14 10:44:38;;;;;;;0.80;0.40;;;;;;;26.41;56.26;100124.63;4989251;28;20120;-84
2022/08/14 10:47:08;;;;;;;0.93;0.60;;;;;;;26.46;55.68;100122.00;5001839;28;20030;-85
2022/08/14 10:49:35;;;;;;;1.40;0.47;;;;;;;26.43;56.15;100131.31;4986805;28;20041;-85
2022/08/14 10:52:07;;;;;;;1.33;0.43;;;;;;;26.31;56.35;100120.03;4985674;28;20121;-87
2022/08/14 10:54:35;;;;;;;1.42;0.57;;;;;;;26.37;57.17;100129.69;4976712;28;20037;-87
2022/08/14 10:57:14;;;;;;;2.50;0.40;;;;;;;26.37;52.43;100121.66;4991625;28;21811;-86
2022/08/14 10:59:57;;;;;;;0.90;0.30;;;;;;;26.37;55.23;100126.19;4994012;28;20125;-87
2022/08/14 11:02:32;;;;;;;0.82;0.28;;;;;;;26.41;54.95;100119.28;4999838;28;20089;-86
2022/08/14 11:05:16;;;;;;;3.95;0.55;;;;;;;26.34;55.72;100116.03;4999458;28;20145;-87
2022/08/14 11:07:54;;;;;;;2.53;0.30;;;;;;;26.37;54.81;100113.66;4995894;28;20338;-83
2022/08/14 11:10:26;;;;;;;3.10;0.40;;;;;;;26.45;53.05;100104.34;4999362;28;20469;-87
2022/08/14 11:12:55;;;;;;;1.83;0.52;;;;;;;26.44;53.56;100103.56;5002459;28;21074;-86
2022/08/14 11:15:24;;;;;;;2.35;0.30;;;;;;;26.33;54.79;100106.41;5002090;28;21375;-87
2022/08/14 11:17:50;;;;;;;0.70;0.30;;;;;;;26.39;54.51;100100.03;4998508;28;20029;-88
2022/08/14 11:20:19;;;;;;;0.82;0.30;;;;;;;26.61;55.05;100103.38;5001773;28;20072;-87
2022/08/14 11:22:46;;;;;;;4.15;0.40;;;;;;;26.66;54.23;100097.25;5003339;28;20029;-86
2022/08/14 11:25:15;;;;;;;0.70;0.40;;;;;;;26.51;55.25;100087.28;5002152;28;20033;-89
2022/08/14 11:27:43;;;;;;;1.00;0.55;;;;;;;26.48;55.61;100082.44;5004936;28;20044;-85
2022/08/14 11:30:15;;;;;;;1.60;0.40;;;;;;;26.56;53.32;100076.63;5000448;28;20483;-86
2022/08/14 11:32:43;;;;;;;1.30;0.30;;;;;;;26.57;51.47;100075.56;5002236;28;20037;-86
2022/08/14 11:35:15;;;;;;;1.27;0.47;;;;;;;26.49;52.81;100078.72;4998077;28;20026;-85
2022/08/14 11:37:58;;;;;;;2.67;0.40;;;;;;;26.47;52.32;100080.06;4997630;28;20474;-87
2022/08/14 11:40:26;;;;;;;0.88;0.40;;;;;;;26.49;52.44;100072.56;5002077;28;20049;-89
2022/08/14 11:42:54;;;;;;;1.30;0.28;;;;;;;26.25;50.46;100072.13;5002597;28;20068;-89
2022/08/14 11:45:34;;;;;;;2.47;0.52;;;;;;;26.26;50.96;100073.75;5002190;28;20037;-88
2022/08/14 11:48:20;;;;;;;4.70;0.63;;;;;;;26.48;49.87;100061.06;5002080;28;20225;-89